createdAt,value
2023-11-17T00:01:22.443Z,15.20
2023-11-17T00:03:32.558Z,7.38
2023-11-17T00:05:41.665Z,10.02
2023-11-17T00:07:53.930Z,10.80
2023-11-17T00:09:57.826Z,10.57
2023-11-17T00:12:07.294Z,9.43
2023-11-17T00:14:15.181Z,9.05
2023-11-17T00:18:36.688Z,8.48
2023-11-17T00:20:43.310Z,10.60
2023-11-17T00:22:54.836Z,10.25
2023-11-17T00:25:00.333Z,10.15
2023-11-17T00:27:08.147Z,11.15
2023-11-17T00:29:22.283Z,10.30
2023-11-17T00:31:30.714Z,9.02
2023-11-17T00:33:36.278Z,9.00
2023-11-17T00:35:41.973Z,18.35
2023-11-17T00:37:52.654Z,13.65
2023-11-17T00:39:56.342Z,7.45
2023-11-17T00:42:03.695Z,13.75
2023-11-17T00:44:13.001Z,5.47
2023-11-17T00:46:16.483Z,7.63
2023-11-17T00:48:24.275Z,8.77
2023-11-17T00:50:51.456Z,6.75
2023-11-17T00:53:05.966Z,10.82
2023-11-17T00:55:14.369Z,9.15
2023-11-17T00:57:22.740Z,7.43
2023-11-17T00:59:33.271Z,6.10
2023-11-17T01:01:39.660Z,7.68
2023-11-17T01:03:49.045Z,6.78
2023-11-17T01:05:58.035Z,9.48
2023-11-17T01:08:08.205Z,7.25
2023-11-17T01:10:22.615Z,7.72
2023-11-17T01:12:29.551Z,6.82
2023-11-17T01:14:35.047Z,7.55
2023-11-17T01:16:42.099Z,7.57
2023-11-17T01:18:47.624Z,6.03
2023-11-17T01:20:54.746Z,6.53
2023-11-17T01:23:13.201Z,5.88
2023-11-17T01:25:17.310Z,8.23
2023-11-17T01:27:22.808Z,8.20
2023-11-17T01:29:32.669Z,6.35
2023-11-17T01:31:39.987Z,6.30
2023-11-17T01:35:55.411Z,4.88
2023-11-17T01:38:02.779Z,6.15
2023-11-17T01:40:19.399Z,4.18
2023-11-17T01:42:28.852Z,4.53
2023-11-17T01:44:35.018Z,5.55
2023-11-17T01:46:43.208Z,6.43
2023-11-17T01:48:50.463Z,5.72
2023-11-17T01:50:57.148Z,5.40
2023-11-17T01:53:08.535Z,7.03
2023-11-17T01:55:19.975Z,5.68
2023-11-17T01:57:26.028Z,5.63
2023-11-17T01:59:38.742Z,7.45
2023-11-17T02:01:49.946Z,11.50
2023-11-17T02:03:57.194Z,12.05
2023-11-17T02:06:23.509Z,14.07
2023-11-17T02:08:44.808Z,14.80
2023-11-17T02:11:04.209Z,17.67
2023-11-17T02:13:20.684Z,13.43
2023-11-17T02:15:30.632Z,16.33
2023-11-17T02:17:43.978Z,13.00
2023-11-17T02:19:54.323Z,13.23
2023-11-17T02:22:05.794Z,15.35
2023-11-17T02:24:15.184Z,10.98
2023-11-17T02:26:35.899Z,11.55
2023-11-17T02:28:53.793Z,15.52
2023-11-17T02:31:16.751Z,12.95
2023-11-17T02:33:24.132Z,9.75
2023-11-17T02:35:35.641Z,11.30
2023-11-17T02:37:41.465Z,11.40
2023-11-17T02:39:47.394Z,11.80
2023-11-17T02:41:58.161Z,15.48
2023-11-17T02:44:16.116Z,8.93
2023-11-17T02:46:26.497Z,10.23
2023-11-17T02:48:32.654Z,12.20
2023-11-17T02:51:04.938Z,14.02
2023-11-17T02:53:20.715Z,10.82
2023-11-17T02:55:24.436Z,17.20
2023-11-17T02:57:32.676Z,12.40
2023-11-17T02:59:40.767Z,14.98
2023-11-17T03:01:52.313Z,11.93
2023-11-17T03:03:55.807Z,14.98
2023-11-17T03:06:02.013Z,14.80
2023-11-17T03:08:15.872Z,12.15
2023-11-17T03:10:25.519Z,15.60
2023-11-17T03:12:32.527Z,14.23
2023-11-17T03:14:40.938Z,13.65
2023-11-17T03:16:51.304Z,14.55
2023-11-17T03:18:57.174Z,12.93
2023-11-17T03:21:03.555Z,12.05
2023-11-17T03:23:09.816Z,11.40
2023-11-17T03:25:23.272Z,9.38
2023-11-17T03:27:29.064Z,13.25
2023-11-17T03:29:42.558Z,13.75
2023-11-17T03:31:54.816Z,11.50
2023-11-17T03:34:02.594Z,12.38
2023-11-17T03:36:09.698Z,10.88
2023-11-17T03:38:16.269Z,13.32
2023-11-17T03:40:34.784Z,12.30
2023-11-17T03:42:40.797Z,13.43
2023-11-17T03:44:47.167Z,10.82
2023-11-17T03:47:01.369Z,12.43
2023-11-17T03:49:22.063Z,10.30
2023-11-17T03:51:27.887Z,11.85
2023-11-17T03:53:36.059Z,11.88
2023-11-17T03:55:41.782Z,20.15
2023-11-17T03:57:50.516Z,14.05
2023-11-17T04:00:01.040Z,13.32
2023-11-17T04:02:20.098Z,12.88
2023-11-17T04:04:27.482Z,13.27
2023-11-17T04:06:35.967Z,12.52
2023-11-17T04:08:39.693Z,14.15
2023-11-17T04:10:51.688Z,12.00
2023-11-17T04:12:57.691Z,11.50
2023-11-17T04:15:06.671Z,10.90
2023-11-17T04:17:15.135Z,9.85
2023-11-17T04:19:30.687Z,9.40
2023-11-17T04:21:38.584Z,12.60
2023-11-17T04:23:44.537Z,11.07
2023-11-17T04:25:49.075Z,9.38
2023-11-17T04:27:55.390Z,9.98
2023-11-17T04:30:08.414Z,9.63
2023-11-17T04:32:15.483Z,11.10
2023-11-17T04:34:23.641Z,10.20
2023-11-17T04:36:29.166Z,11.35
2023-11-17T04:38:35.868Z,10.13
2023-11-17T04:40:41.323Z,8.52
2023-11-17T04:42:48.268Z,12.30
2023-11-17T04:45:03.131Z,13.70
2023-11-17T04:47:11.341Z,8.70
2023-11-17T04:49:28.759Z,8.95
2023-11-17T04:51:34.831Z,10.00
2023-11-17T04:53:40.683Z,9.90
2023-11-17T04:55:45.578Z,11.70
2023-11-17T04:57:51.459Z,9.43
2023-11-17T05:00:01.003Z,7.07
2023-11-17T05:02:07.050Z,10.80
2023-11-17T05:04:14.672Z,9.90
2023-11-17T05:06:29.617Z,8.05
2023-11-17T05:08:35.317Z,9.38
2023-11-17T05:10:57.373Z,7.47
2023-11-17T05:13:00.979Z,13.50
2023-11-17T05:15:08.704Z,6.25
2023-11-17T05:17:16.528Z,7.72
2023-11-17T05:19:26.299Z,11.90
2023-11-17T05:21:35.936Z,10.40
2023-11-17T05:23:39.964Z,10.18
2023-11-17T05:25:47.193Z,9.77
2023-11-17T05:27:53.093Z,9.63
2023-11-17T05:29:58.267Z,11.70
2023-11-17T05:32:11.417Z,11.10
2023-11-17T05:34:18.771Z,12.35
2023-11-17T05:36:25.316Z,10.85
2023-11-17T05:38:34.661Z,11.02
2023-11-17T05:40:50.275Z,11.93
2023-11-17T05:42:55.044Z,11.68
2023-11-17T05:45:01.691Z,11.38
2023-11-17T05:47:07.777Z,15.13
2023-11-17T05:49:21.957Z,12.35
2023-11-17T05:51:29.311Z,13.68
2023-11-17T05:53:39.146Z,12.07
2023-11-17T05:55:46.021Z,13.30
2023-11-17T05:57:51.921Z,10.80
2023-11-17T06:00:10.198Z,9.35
2023-11-17T06:02:20.090Z,11.55
2023-11-17T06:04:25.868Z,15.10
2023-11-17T06:06:34.041Z,8.55
2023-11-17T06:08:44.716Z,9.32
2023-11-17T06:10:52.208Z,12.55
2023-11-17T06:12:59.928Z,10.57
2023-11-17T06:15:13.256Z,12.30
2023-11-17T06:17:18.776Z,12.75
2023-11-17T06:19:30.818Z,9.15
2023-11-17T06:21:38.221Z,9.93
2023-11-17T06:23:46.873Z,9.27
2023-11-17T06:25:54.559Z,11.23
2023-11-17T06:27:57.484Z,7.35
2023-11-17T06:30:14.108Z,10.15
2023-11-17T06:32:21.480Z,8.98
2023-11-17T06:34:27.700Z,9.80
2023-11-17T06:36:41.117Z,10.07
2023-11-17T06:38:51.280Z,11.07
2023-11-17T06:40:57.404Z,14.02
2023-11-17T06:43:02.901Z,11.32
2023-11-17T06:45:13.018Z,8.27
2023-11-17T06:47:20.148Z,10.90
2023-11-17T06:49:33.081Z,10.07
2023-11-17T06:51:39.808Z,8.07
2023-11-17T06:53:45.067Z,12.90
2023-11-17T06:55:58.196Z,10.02
2023-11-17T06:58:09.432Z,9.85
2023-11-17T07:00:23.413Z,11.50
2023-11-17T07:02:26.345Z,11.20
2023-11-17T07:04:34.489Z,8.27
2023-11-17T07:06:43.306Z,12.35
2023-11-17T07:08:47.989Z,12.43
2023-11-17T07:11:11.658Z,8.50
2023-11-17T07:13:18.442Z,10.73
2023-11-17T07:15:26.276Z,9.50
2023-11-17T07:17:29.689Z,9.15
2023-11-17T07:19:37.340Z,11.30
2023-11-17T07:21:41.042Z,8.98
2023-11-17T07:24:02.183Z,9.60
2023-11-17T07:26:21.219Z,11.15
2023-11-17T07:28:27.598Z,10.25
2023-11-17T07:30:49.263Z,9.73
2023-11-17T07:32:55.431Z,10.15
2023-11-17T07:34:58.960Z,9.15
2023-11-17T07:37:04.922Z,12.50
2023-11-17T07:39:21.083Z,11.32
2023-11-17T07:41:30.001Z,12.93
2023-11-17T07:43:38.170Z,8.40
2023-11-17T07:45:50.249Z,12.52
2023-11-17T07:47:56.401Z,11.90
2023-11-17T07:50:09.049Z,14.60
2023-11-17T07:52:18.039Z,12.32
2023-11-17T07:54:26.441Z,13.43
2023-11-17T07:56:37.311Z,9.07
2023-11-17T07:58:43.630Z,7.97
2023-11-17T08:00:52.240Z,15.23
2023-11-17T08:02:55.752Z,10.60
2023-11-17T08:05:13.580Z,15.63
2023-11-17T08:07:19.211Z,15.02
2023-11-17T08:09:43.949Z,19.25
2023-11-17T08:11:52.840Z,9.88
2023-11-17T08:13:55.986Z,7.88
2023-11-17T08:16:01.919Z,10.18
2023-11-17T08:18:10.168Z,11.85
2023-11-17T08:20:33.055Z,11.40
2023-11-17T08:22:35.924Z,35.30
2023-11-17T08:24:42.346Z,26.42
2023-11-17T08:26:45.771Z,14.18
2023-11-17T08:29:00.676Z,10.63
2023-11-17T08:31:06.182Z,8.63
2023-11-17T08:33:15.392Z,7.35
2023-11-17T08:35:22.482Z,9.05
2023-11-17T08:37:34.343Z,6.77
2023-11-17T08:39:39.858Z,7.22
2023-11-17T08:42:03.445Z,7.75
2023-11-17T08:44:11.843Z,10.73
2023-11-17T08:46:29.957Z,6.88
2023-11-17T08:48:35.573Z,9.10
2023-11-17T08:50:51.932Z,10.13
2023-11-17T08:52:59.389Z,9.73
2023-11-17T08:55:05.928Z,31.42
2023-11-17T08:57:14.344Z,35.80
2023-11-17T08:59:46.911Z,28.33
2023-11-17T09:01:54.091Z,18.58
2023-11-17T09:04:02.906Z,10.68
2023-11-17T09:06:09.738Z,11.30
2023-11-17T09:08:12.757Z,9.88
2023-11-17T09:10:37.997Z,6.97
2023-11-17T09:12:47.757Z,10.88
2023-11-17T09:14:57.674Z,8.68
2023-11-17T09:17:08.824Z,13.07
2023-11-17T09:19:36.276Z,11.98
2023-11-17T09:21:43.415Z,10.25
2023-11-17T09:23:48.962Z,10.52
2023-11-17T09:25:56.664Z,11.32
2023-11-17T09:28:04.029Z,10.43
2023-11-17T09:30:22.708Z,8.48
2023-11-17T09:32:25.715Z,8.30
2023-11-17T09:34:31.508Z,8.05
2023-11-17T09:36:37.811Z,10.60
2023-11-17T09:38:45.464Z,9.68
2023-11-17T09:40:52.265Z,13.88
2023-11-17T09:43:11.279Z,10.93
2023-11-17T09:45:21.287Z,9.70
2023-11-17T09:47:30.063Z,11.50
2023-11-17T09:49:45.452Z,9.93
2023-11-17T09:51:51.750Z,8.88
2023-11-17T09:54:00.078Z,6.93
2023-11-17T09:56:06.908Z,8.98
2023-11-17T09:58:13.756Z,9.20
2023-11-17T10:00:40.063Z,8.07
2023-11-17T10:02:43.609Z,6.78
2023-11-17T10:04:49.468Z,7.38
2023-11-17T10:06:55.414Z,6.47
2023-11-17T10:09:14.965Z,7.60
2023-11-17T10:11:24.958Z,8.38
2023-11-17T10:13:33.156Z,5.35
2023-11-17T10:15:46.055Z,8.82
2023-11-17T10:17:51.402Z,6.80
2023-11-17T10:20:01.240Z,6.20
2023-11-17T10:22:08.830Z,8.30
2023-11-17T10:24:15.003Z,5.20
2023-11-17T10:26:23.711Z,5.85
2023-11-17T10:28:31.731Z,7.35
2023-11-17T10:30:52.033Z,6.38
2023-11-17T10:33:14.369Z,3.30
2023-11-17T10:35:27.833Z,3.75
2023-11-17T10:37:35.940Z,5.32
2023-11-17T10:40:05.369Z,4.50
2023-11-17T10:42:28.152Z,6.00
2023-11-17T10:44:39.307Z,5.05
2023-11-17T10:46:53.634Z,7.07
2023-11-17T10:49:02.346Z,6.38
2023-11-17T10:51:06.639Z,6.45
2023-11-17T10:53:25.504Z,6.45
2023-11-17T10:55:35.999Z,4.63
2023-11-17T10:57:42.393Z,6.15
2023-11-17T10:59:56.183Z,3.83
2023-11-17T11:02:10.750Z,3.95
2023-11-17T11:04:29.349Z,5.35
2023-11-17T11:06:35.036Z,7.40
2023-11-17T11:08:45.669Z,6.10
2023-11-17T11:11:18.744Z,6.57
2023-11-17T11:13:31.007Z,4.50
2023-11-17T11:15:38.588Z,7.25
2023-11-17T11:18:07.418Z,3.83
2023-11-17T11:20:23.325Z,6.80
2023-11-17T11:22:30.736Z,6.25
2023-11-17T11:24:41.446Z,5.97
2023-11-17T11:26:45.765Z,6.65
2023-11-17T11:28:52.108Z,5.20
2023-11-17T11:30:59.299Z,5.28
2023-11-17T11:33:09.624Z,4.63
2023-11-17T11:35:16.945Z,3.92
2023-11-17T11:37:34.089Z,5.65
2023-11-17T11:39:40.216Z,5.10
2023-11-17T11:41:46.954Z,5.90
2023-11-17T11:43:55.998Z,2.65
2023-11-17T11:45:59.734Z,4.93
2023-11-17T11:48:09.480Z,6.43
2023-11-17T11:50:26.936Z,4.82
2023-11-17T11:52:37.916Z,5.20
2023-11-17T11:54:46.647Z,5.47
2023-11-17T11:56:53.183Z,6.85
2023-11-17T11:59:04.422Z,3.25
2023-11-17T12:01:11.630Z,5.35
2023-11-17T12:03:20.689Z,3.83
2023-11-17T12:05:31.920Z,5.57
2023-11-17T12:07:38.085Z,4.05
2023-11-17T12:09:45.417Z,5.40
2023-11-17T12:11:52.522Z,6.25
2023-11-17T12:14:09.332Z,5.00
2023-11-17T12:16:20.219Z,3.53
2023-11-17T12:18:29.704Z,4.82
2023-11-17T12:20:45.553Z,8.77
2023-11-17T12:23:03.444Z,6.47
2023-11-17T12:25:13.080Z,4.90
2023-11-17T12:27:22.647Z,5.72
2023-11-17T12:29:43.471Z,6.50
2023-11-17T12:31:53.366Z,5.85
2023-11-17T12:34:03.410Z,3.40
2023-11-17T12:36:09.553Z,3.05
2023-11-17T12:38:17.209Z,7.35
2023-11-17T12:40:33.520Z,9.30
2023-11-17T12:42:39.197Z,4.32
2023-11-17T12:44:44.945Z,4.97
2023-11-17T12:46:59.559Z,5.18
2023-11-17T12:49:06.767Z,5.57
2023-11-17T12:51:13.149Z,5.50
2023-11-17T12:53:18.738Z,5.63
2023-11-17T12:55:24.690Z,5.68
2023-11-17T12:57:30.532Z,27.75
2023-11-17T12:59:43.385Z,10.27
2023-11-17T13:01:48.924Z,11.30
2023-11-17T13:03:57.654Z,6.88
2023-11-17T13:06:06.384Z,4.97
2023-11-17T13:08:13.260Z,4.43
2023-11-17T13:10:34.520Z,4.53
2023-11-17T13:12:40.104Z,3.30
2023-11-17T13:14:46.009Z,4.53
2023-11-17T13:16:52.164Z,3.70
2023-11-17T13:19:21.420Z,4.72
2023-11-17T13:21:32.212Z,4.30
2023-11-17T13:23:38.901Z,3.25
2023-11-17T13:26:07.733Z,6.90
2023-11-17T13:28:16.177Z,6.07
2023-11-17T13:30:30.196Z,2.38
2023-11-17T13:32:52.311Z,4.05
2023-11-17T13:34:59.029Z,6.07
2023-11-17T13:37:08.477Z,2.63
2023-11-17T13:39:19.916Z,3.35
2023-11-17T13:41:28.600Z,5.07
2023-11-17T13:43:35.320Z,6.60
2023-11-17T13:45:44.134Z,5.18
2023-11-17T13:48:06.485Z,3.88
2023-11-17T13:50:21.697Z,3.25
2023-11-17T13:52:30.960Z,4.03
2023-11-17T13:54:36.498Z,7.22
2023-11-17T13:56:40.800Z,8.68
2023-11-17T13:58:47.161Z,4.63
2023-11-17T14:00:53.090Z,4.43
2023-11-17T14:03:09.467Z,4.53
2023-11-17T14:05:16.565Z,4.28
2023-11-17T14:07:24.738Z,5.57
2023-11-17T14:09:50.595Z,3.55
2023-11-17T14:11:58.861Z,6.53
2023-11-17T14:14:06.044Z,4.55
2023-11-17T14:16:13.010Z,4.25
2023-11-17T14:18:19.464Z,5.80
2023-11-17T14:20:41.979Z,8.70
2023-11-17T14:22:48.183Z,6.75
2023-11-17T14:24:57.299Z,5.13
2023-11-17T14:27:04.733Z,6.13
2023-11-17T14:29:16.872Z,9.52
2023-11-17T14:31:22.987Z,6.55
2023-11-17T14:33:28.975Z,4.10
2023-11-17T14:35:36.316Z,4.35
2023-11-17T14:37:42.241Z,5.43
2023-11-17T14:39:48.085Z,5.05
2023-11-17T14:42:01.587Z,5.75
2023-11-17T14:44:09.293Z,5.57
2023-11-17T14:46:22.015Z,3.92
2023-11-17T14:48:35.365Z,6.95
2023-11-17T14:50:46.632Z,7.22
2023-11-17T14:52:54.060Z,5.15
2023-11-17T14:55:00.924Z,5.85
2023-11-17T14:57:13.070Z,4.10
2023-11-17T14:59:24.641Z,6.15
2023-11-17T15:01:32.677Z,4.10
2023-11-17T15:03:41.985Z,6.35
2023-11-17T15:05:49.068Z,4.93
2023-11-17T15:07:54.840Z,5.38
2023-11-17T15:10:02.704Z,5.28
2023-11-17T15:12:13.297Z,7.57
2023-11-17T15:14:22.031Z,4.30
2023-11-17T15:16:30.818Z,4.75
2023-11-17T15:18:39.645Z,6.30
2023-11-17T15:22:59.432Z,5.25
2023-11-17T15:25:04.903Z,6.57
2023-11-17T15:27:15.946Z,7.55
2023-11-17T15:29:32.247Z,6.47
2023-11-17T15:31:38.111Z,5.28
2023-11-17T15:33:43.723Z,4.57
2023-11-17T15:35:47.249Z,4.70
2023-11-17T15:37:53.194Z,6.90
2023-11-17T15:40:14.412Z,4.32
2023-11-17T15:42:22.549Z,6.80
2023-11-17T15:44:29.633Z,5.18
2023-11-17T15:46:39.290Z,9.27
2023-11-17T15:48:53.891Z,8.45
2023-11-17T15:51:05.037Z,7.40
2023-11-17T15:53:10.806Z,4.70
2023-11-17T15:55:15.625Z,3.70
2023-11-17T15:57:25.133Z,9.73
2023-11-17T15:59:37.989Z,8.25
2023-11-17T16:01:45.473Z,9.60
2023-11-17T16:03:48.529Z,6.97
2023-11-17T16:05:54.529Z,11.32
2023-11-17T16:08:00.893Z,9.73
2023-11-17T16:10:16.582Z,11.57
2023-11-17T16:12:24.597Z,8.63
2023-11-17T16:14:30.641Z,11.25
2023-11-17T16:16:38.375Z,8.38
2023-11-17T16:18:41.770Z,7.07
2023-11-17T16:20:49.807Z,9.15
2023-11-17T16:23:01.941Z,12.32
2023-11-17T16:25:14.334Z,9.32
2023-11-17T16:27:19.482Z,7.82
2023-11-17T16:29:45.703Z,9.18
2023-11-17T16:31:51.976Z,8.05
2023-11-17T16:33:59.112Z,9.18
2023-11-17T16:36:10.815Z,6.72
2023-11-17T16:38:20.099Z,8.68
2023-11-17T16:40:31.775Z,7.03
2023-11-17T16:42:39.828Z,8.18
2023-11-17T16:44:49.367Z,9.13
2023-11-17T16:46:56.422Z,8.30
2023-11-17T16:49:02.410Z,10.02
2023-11-17T16:51:09.977Z,7.53
2023-11-17T16:53:19.199Z,7.43
2023-11-17T16:55:24.184Z,13.32
2023-11-17T16:57:38.437Z,6.05
2023-11-17T16:59:52.719Z,7.07
2023-11-17T17:01:58.908Z,5.90
2023-11-17T17:04:04.592Z,10.98
2023-11-17T17:06:18.453Z,6.72
2023-11-17T17:08:27.484Z,8.95
2023-11-17T17:10:44.357Z,6.53
2023-11-17T17:12:50.809Z,10.57
2023-11-17T17:14:59.451Z,11.82
2023-11-17T17:17:08.268Z,10.57
2023-11-17T17:19:15.601Z,10.23
2023-11-17T17:21:22.898Z,14.65
2023-11-17T17:23:28.848Z,12.93
2023-11-17T17:25:38.543Z,7.85
2023-11-17T17:27:47.191Z,12.00
2023-11-17T17:29:53.054Z,10.55
2023-11-17T17:32:01.359Z,13.27
2023-11-17T17:34:09.263Z,14.32
2023-11-17T17:36:22.090Z,18.25
2023-11-17T17:38:28.396Z,16.30
2023-11-17T17:40:49.150Z,14.02
2023-11-17T17:42:56.225Z,14.30
2023-11-17T17:45:02.124Z,19.90
2023-11-17T17:47:10.598Z,14.27
2023-11-17T17:49:18.098Z,14.32
2023-11-17T17:51:24.162Z,20.35
2023-11-17T17:53:29.864Z,22.05
2023-11-17T17:55:35.449Z,14.35
2023-11-17T17:57:41.309Z,15.30
2023-11-17T17:59:56.154Z,19.88
2023-11-17T18:02:04.301Z,26.70
2023-11-17T18:04:13.333Z,17.48
2023-11-17T18:06:18.985Z,15.38
2023-11-17T18:08:25.175Z,14.77
2023-11-17T18:10:36.365Z,15.18
2023-11-17T18:12:41.108Z,16.17
2023-11-17T18:14:47.573Z,20.02
2023-11-17T18:16:53.985Z,17.80
2023-11-17T18:19:10.130Z,22.95
2023-11-17T18:21:19.010Z,31.27
2023-11-17T18:23:26.148Z,33.15
2023-11-17T18:25:32.055Z,14.68
2023-11-17T18:27:38.901Z,15.82
2023-11-17T18:29:47.153Z,13.05
2023-11-17T18:31:52.716Z,10.65
2023-11-17T18:34:02.172Z,12.90
2023-11-17T18:36:12.104Z,12.00
2023-11-17T18:38:17.906Z,12.45
2023-11-17T18:40:41.289Z,11.90
2023-11-17T18:42:44.768Z,12.20
2023-11-17T18:44:51.382Z,13.95
2023-11-17T18:46:59.457Z,15.55
2023-11-17T18:49:12.604Z,17.00
2023-11-17T18:51:23.484Z,23.02
2023-11-17T18:53:31.626Z,10.40
2023-11-17T18:55:39.568Z,11.65
2023-11-17T18:59:55.194Z,13.73
2023-11-17T19:02:00.950Z,10.23
2023-11-17T19:04:09.679Z,10.77
2023-11-17T19:06:17.057Z,10.77
2023-11-17T19:08:33.616Z,14.00
2023-11-17T19:10:42.458Z,21.45
2023-11-17T19:12:48.607Z,18.92
2023-11-17T19:14:56.243Z,13.23
2023-11-17T19:17:01.848Z,12.18
2023-11-17T19:19:16.489Z,20.88
2023-11-17T19:21:22.990Z,25.83
2023-11-17T19:23:32.241Z,25.10
2023-11-17T19:25:37.945Z,21.75
2023-11-17T19:27:45.704Z,21.77
2023-11-17T19:29:54.819Z,24.67
2023-11-17T19:32:01.277Z,22.08
2023-11-17T19:34:11.225Z,21.08
2023-11-17T19:36:23.684Z,20.58
2023-11-17T19:38:32.549Z,24.85
2023-11-17T19:40:43.712Z,19.02
2023-11-17T19:42:50.675Z,36.08
2023-11-17T19:44:54.080Z,21.67
2023-11-17T19:47:02.335Z,23.73
2023-11-17T19:49:25.796Z,21.17
2023-11-17T19:51:32.549Z,20.00
2023-11-17T19:53:40.992Z,17.73
2023-11-17T19:55:48.715Z,18.58
2023-11-17T19:57:55.026Z,25.77
2023-11-17T19:59:58.004Z,18.58
2023-11-17T20:02:17.810Z,20.83
2023-11-17T20:04:24.839Z,17.35
2023-11-17T20:06:31.718Z,20.58
2023-11-17T20:08:39.798Z,18.85
2023-11-17T20:10:46.886Z,22.00
2023-11-17T20:12:53.858Z,16.13
2023-11-17T20:15:00.048Z,19.73
2023-11-17T20:17:14.069Z,18.02
2023-11-17T20:19:24.396Z,17.30
2023-11-17T20:21:30.495Z,15.88
2023-11-17T20:23:36.264Z,15.68
2023-11-17T20:25:46.033Z,19.02
2023-11-17T20:27:50.726Z,21.55
2023-11-17T20:29:57.262Z,16.33
2023-11-17T20:32:11.152Z,17.90
2023-11-17T20:34:19.426Z,15.68
2023-11-17T20:36:26.135Z,14.80
2023-11-17T20:38:31.735Z,19.67
2023-11-17T20:40:40.377Z,15.13
2023-11-17T20:42:52.147Z,15.90
2023-11-17T20:44:55.835Z,14.02
2023-11-17T20:47:01.627Z,19.27
2023-11-17T20:49:14.489Z,17.00
2023-11-17T20:51:21.368Z,21.20
2023-11-17T20:53:27.247Z,22.35
2023-11-17T20:55:32.964Z,18.58
2023-11-17T20:57:37.068Z,17.13
2023-11-17T20:59:50.355Z,16.08
2023-11-17T21:01:58.202Z,17.63
2023-11-17T21:04:02.502Z,19.80
2023-11-17T21:06:10.451Z,15.73
2023-11-17T21:10:34.706Z,17.75
2023-11-17T21:12:38.507Z,21.10
2023-11-17T21:14:46.971Z,20.02
2023-11-17T21:16:53.109Z,24.05
2023-11-17T21:19:02.933Z,20.15
2023-11-17T21:21:12.289Z,16.67
2023-11-17T21:23:18.196Z,16.75
2023-11-17T21:25:23.393Z,17.70
2023-11-17T21:27:30.485Z,18.95
2023-11-17T21:29:37.660Z,22.33
2023-11-17T21:31:49.940Z,20.05
2023-11-17T21:33:55.916Z,22.55
2023-11-17T21:36:10.640Z,22.52
2023-11-17T21:38:16.417Z,19.95
2023-11-17T21:40:26.579Z,21.25
2023-11-17T21:42:32.488Z,17.48
2023-11-17T21:44:40.786Z,17.60
2023-11-17T21:46:51.354Z,23.13
2023-11-17T21:48:58.765Z,23.60
2023-11-17T21:51:04.897Z,21.30
2023-11-17T21:53:12.191Z,21.20
2023-11-17T21:55:19.611Z,17.90
2023-11-17T21:57:30.729Z,20.95
2023-11-17T21:59:39.235Z,19.10
2023-11-17T22:01:48.526Z,16.75
2023-11-17T22:03:58.088Z,16.73
2023-11-17T22:06:01.574Z,21.88
2023-11-17T22:08:07.418Z,19.30
2023-11-17T22:10:14.621Z,17.42
2023-11-17T22:12:20.360Z,17.75
2023-11-17T22:14:26.160Z,15.00
2023-11-17T22:16:32.270Z,18.65
2023-11-17T22:18:40.162Z,19.02
2023-11-17T22:20:50.250Z,15.50
2023-11-17T22:22:56.394Z,15.60
2023-11-17T22:25:34.047Z,16.02
2023-11-17T22:27:37.023Z,19.23
2023-11-17T22:29:46.498Z,18.10
2023-11-17T22:31:54.438Z,16.75
2023-11-17T22:38:21.415Z,14.02
2023-11-17T22:40:38.708Z,15.55
2023-11-17T22:42:46.856Z,17.27
2023-11-17T22:44:53.675Z,18.40
2023-11-17T22:47:00.177Z,14.00
2023-11-17T22:49:10.937Z,13.32
2023-11-17T22:51:27.986Z,14.93
2023-11-17T22:53:35.662Z,13.73
2023-11-17T22:55:42.459Z,15.80
2023-11-17T22:57:49.120Z,33.08
2023-11-17T22:59:58.142Z,15.95
2023-11-17T23:02:09.686Z,16.33
2023-11-17T23:04:14.960Z,16.98
2023-11-17T23:06:23.887Z,14.35
2023-11-17T23:08:30.925Z,15.43
2023-11-17T23:10:44.223Z,16.70
2023-11-17T23:12:49.024Z,14.98
2023-11-17T23:14:54.534Z,16.05
2023-11-17T23:17:04.616Z,17.98
2023-11-17T23:19:27.950Z,15.05
2023-11-17T23:21:37.205Z,15.18
2023-11-17T23:23:47.444Z,15.18
2023-11-17T23:25:53.556Z,15.63
2023-11-17T23:28:02.500Z,14.40
2023-11-17T23:30:09.657Z,16.63
2023-11-17T23:32:16.105Z,13.55
2023-11-17T23:34:22.389Z,13.07
2023-11-17T23:36:38.297Z,13.45
2023-11-17T23:38:44.351Z,16.92
2023-11-17T23:40:51.894Z,19.40
2023-11-17T23:42:56.507Z,15.65
2023-11-17T23:45:03.322Z,15.55
2023-11-17T23:47:10.795Z,17.13
2023-11-17T23:49:26.496Z,18.27
2023-11-17T23:51:33.365Z,16.85
2023-11-17T23:53:41.816Z,11.57
2023-11-17T23:55:47.255Z,18.85
2023-11-17T23:57:52.760Z,15.88
2023-11-17T23:59:58.227Z,12.43
